KOMN

Ormond Beach Municipal Airport

Ormond Beach, Florida, USA
METAR KOMN 211350Z 00000KT 3SM -RABR SCT021 OVC070 23/23 A3012
Observed Flight Rules
May-21 @ 13:50 UTC (an hour ago) Marginal Visual Flight Rules
Visibility Clouds Conditions
3 miles
  • Scattered at 2,100' AGL
  • Overcast at 7,000' AGL
  • Light Rain
  • Mist
Temperatures Readings
Current 23°C / 73°F
Dewpoint 23°C / 73°F
Humidity 100%
Altimeter 30.12" Hg
Pressure 1020 hPa
Elevation 9
METAR KOMN 211350Z 00000KT 3SM -RABR SCT021 OVC070 23/23 A3012
Observed Flight Rules
May-21 @ 13:50 UTC
(an hour ago)
MVFR
Clouds
  • Scattered at 2,100' AGL
  • Overcast at 7,000' AGL
Conditions
  • Light Rain
  • Mist
Temperature Dewpoint
23°C / 73°F 23°C / 73°F
Humidity Altimeter Pressure
100% 30.12" Hg 1020 hPa